sensor_id;sensor_type;location;lat;lon;timestamp;pressure;altitude;pressure_sealevel;temperature;humidity
38022;BME280;23832;43.216;27.946;2022-09-04T00:00:57;101168.34;;;22.88;100.00
38022;BME280;23832;43.216;27.946;2022-09-04T00:03:13;101173.38;;;22.84;100.00
38022;BME280;23832;43.216;27.946;2022-09-04T00:05:22;101179.56;;;22.85;100.00
38022;BME280;23832;43.216;27.946;2022-09-04T00:07:33;101176.66;;;22.86;100.00
38022;BME280;23832;43.216;27.946;2022-09-04T00:09:42;101179.34;;;22.86;100.00
38022;BME280;23832;43.216;27.946;2022-09-04T00:11:52;101184.13;;;22.84;100.00
38022;BME280;23832;43.216;27.946;2022-09-04T00:14:00;101184.34;;;22.83;100.00
38022;BME280;23832;43.216;27.946;2022-09-04T00:16:07;101179.19;;;22.81;100.00
38022;BME280;23832;43.216;27.946;2022-09-04T00:18:14;101178.88;;;22.78;100.00
38022;BME280;23832;43.216;27.946;2022-09-04T00:20:29;101175.25;;;22.72;100.00
38022;BME280;23832;43.216;27.946;2022-09-04T00:26:50;101185.69;;;22.69;100.00
38022;BME280;23832;43.216;27.946;2022-09-04T00:28:56;101183.69;;;22.64;100.00
38022;BME280;23832;43.216;27.946;2022-09-04T00:31:03;101188.50;;;22.62;100.00
38022;BME280;23832;43.216;27.946;2022-09-04T00:33:18;101183.63;;;22.59;100.00
38022;BME280;23832;43.216;27.946;2022-09-04T00:35:26;101173.38;;;22.56;100.00
38022;BME280;23832;43.216;27.946;2022-09-04T00:37:34;101174.88;;;22.52;100.00
38022;BME280;23832;43.216;27.946;2022-09-04T00:39:43;101169.31;;;22.42;100.00
38022;BME280;23832;43.216;27.946;2022-09-04T00:41:57;101177.59;;;22.40;100.00
38022;BME280;23832;43.216;27.946;2022-09-04T00:47:25;101179.03;;;22.19;100.00
38022;BME280;23832;43.216;27.946;2022-09-04T00:50:06;101162.72;;;22.09;100.00
38022;BME280;23832;43.216;27.946;2022-09-04T00:52:25;101168.31;;;22.07;100.00
38022;BME280;23832;43.216;27.946;2022-09-04T00:54:51;101175.78;;;22.05;100.00
38022;BME280;23832;43.216;27.946;2022-09-04T00:59:52;101169.84;;;22.03;100.00
38022;BME280;23832;43.216;27.946;2022-09-04T01:02:00;101169.59;;;22.05;100.00
38022;BME280;23832;43.216;27.946;2022-09-04T01:04:25;101170.78;;;22.09;100.00
38022;BME280;23832;43.216;27.946;2022-09-04T01:06:34;101173.09;;;22.05;100.00
38022;BME280;23832;43.216;27.946;2022-09-04T01:08:57;101175.66;;;22.00;100.00
38022;BME280;23832;43.216;27.946;2022-09-04T01:11:13;101177.19;;;21.96;100.00
38022;BME280;23832;43.216;27.946;2022-09-04T01:13:24;101186.53;;;21.94;100.00
38022;BME280;23832;43.216;27.946;2022-09-04T01:15:38;101176.00;;;21.92;100.00
38022;BME280;23832;43.216;27.946;2022-09-04T01:17:54;101182.22;;;21.93;100.00
38022;BME280;23832;43.216;27.946;2022-09-04T01:20:06;101183.25;;;21.92;100.00
38022;BME280;23832;43.216;27.946;2022-09-04T01:22:28;101185.34;;;21.90;100.00
38022;BME280;23832;43.216;27.946;2022-09-04T01:25:00;101187.22;;;21.89;100.00
38022;BME280;23832;43.216;27.946;2022-09-04T01:27:08;101165.50;;;21.56;100.00
38022;BME280;23832;43.216;27.946;2022-09-04T01:29:20;101181.50;;;21.86;100.00
38022;BME280;23832;43.216;27.946;2022-09-04T01:31:28;101179.06;;;21.84;100.00
38022;BME280;23832;43.216;27.946;2022-09-04T01:33:38;101178.22;;;21.83;100.00
38022;BME280;23832;43.216;27.946;2022-09-04T01:35:50;101179.06;;;21.84;100.00
38022;BME280;23832;43.216;27.946;2022-09-04T01:38:02;101181.97;;;21.82;100.00
38022;BME280;23832;43.216;27.946;2022-09-04T01:40:21;101174.63;;;21.78;100.00
38022;BME280;23832;43.216;27.946;2022-09-04T01:42:30;101170.31;;;21.77;100.00
38022;BME280;23832;43.216;27.946;2022-09-04T01:44:37;101158.88;;;21.70;100.00
38022;BME280;23832;43.216;27.946;2022-09-04T01:46:49;101165.63;;;21.72;100.00
38022;BME280;23832;43.216;27.946;2022-09-04T01:49:01;101172.28;;;21.70;100.00
38022;BME280;23832;43.216;27.946;2022-09-04T01:51:05;101171.81;;;21.49;100.00
38022;BME280;23832;43.216;27.946;2022-09-04T01:53:17;101175.44;;;21.55;100.00
38022;BME280;23832;43.216;27.946;2022-09-04T01:55:27;101182.78;;;21.60;100.00
38022;BME280;23832;43.216;27.946;2022-09-04T01:57:40;101191.91;;;21.59;100.00
38022;BME280;23832;43.216;27.946;2022-09-04T01:59:53;101190.47;;;21.56;100.00
38022;BME280;23832;43.216;27.946;2022-09-04T02:02:03;101191.19;;;21.51;100.00
38022;BME280;23832;43.216;27.946;2022-09-04T02:04:13;101198.50;;;21.44;100.00
38022;BME280;23832;43.216;27.946;2022-09-04T02:06:27;101201.66;;;21.41;100.00
38022;BME280;23832;43.216;27.946;2022-09-04T02:08:48;101198.41;;;21.39;100.00
38022;BME280;23832;43.216;27.946;2022-09-04T02:10:59;101146.03;;;20.95;100.00
38022;BME280;23832;43.216;27.946;2022-09-04T02:13:13;101205.72;;;21.32;100.00
38022;BME280;23832;43.216;27.946;2022-09-04T02:15:28;101207.22;;;21.28;100.00
38022;BME280;23832;43.216;27.946;2022-09-04T02:17:41;101197.75;;;21.25;100.00
38022;BME280;23832;43.216;27.946;2022-09-04T02:19:53;101197.66;;;21.02;100.00
38022;BME280;23832;43.216;27.946;2022-09-04T02:22:13;101207.13;;;21.05;100.00
38022;BME280;23832;43.216;27.946;2022-09-04T02:24:20;101216.34;;;21.09;100.00
38022;BME280;23832;43.216;27.946;2022-09-04T02:26:28;101229.53;;;21.10;100.00
38022;BME280;23832;43.216;27.946;2022-09-04T02:28:42;101224.16;;;21.10;100.00
38022;BME280;23832;43.216;27.946;2022-09-04T02:30:51;101229.16;;;21.07;100.00
38022;BME280;23832;43.216;27.946;2022-09-04T02:33:02;101235.34;;;21.07;100.00
38022;BME280;23832;43.216;27.946;2022-09-04T02:35:12;101238.69;;;21.03;100.00
38022;BME280;23832;43.216;27.946;2022-09-04T02:37:23;101243.03;;;21.04;100.00
38022;BME280;23832;43.216;27.946;2022-09-04T02:39:37;101245.91;;;21.02;100.00
38022;BME280;23832;43.216;27.946;2022-09-04T02:41:51;101240.41;;;20.85;100.00
38022;BME280;23832;43.216;27.946;2022-09-04T02:44:12;101257.34;;;20.97;100.00
38022;BME280;23832;43.216;27.946;2022-09-04T02:46:25;101262.13;;;20.95;100.00
38022;BME280;23832;43.216;27.946;2022-09-04T02:48:39;101261.06;;;20.96;100.00
38022;BME280;23832;43.216;27.946;2022-09-04T02:50:57;101260.91;;;20.91;100.00
38022;BME280;23832;43.216;27.946;2022-09-04T02:53:15;101268.09;;;20.79;100.00
38022;BME280;23832;43.216;27.946;2022-09-04T02:55:33;101274.22;;;20.68;100.00
38022;BME280;23832;43.216;27.946;2022-09-04T02:57:53;101276.19;;;20.73;100.00
38022;BME280;23832;43.216;27.946;2022-09-04T03:00:05;101281.84;;;20.64;100.00
38022;BME280;23832;43.216;27.946;2022-09-04T03:02:17;101283.59;;;20.59;100.00
38022;BME280;23832;43.216;27.946;2022-09-04T03:04:25;101284.00;;;20.56;100.00
38022;BME280;23832;43.216;27.946;2022-09-04T03:06:43;101206.75;;;19.98;100.00
38022;BME280;23832;43.216;27.946;2022-09-04T03:08:52;101275.63;;;20.52;100.00
38022;BME280;23832;43.216;27.946;2022-09-04T03:10:59;101286.09;;;20.54;100.00
38022;BME280;23832;43.216;27.946;2022-09-04T03:13:07;101277.00;;;20.55;100.00
38022;BME280;23832;43.216;27.946;2022-09-04T03:15:18;101273.28;;;20.56;100.00
38022;BME280;23832;43.216;27.946;2022-09-04T03:17:27;101274.72;;;20.58;100.00
38022;BME280;23832;43.216;27.946;2022-09-04T03:19:37;101269.13;;;20.60;100.00
38022;BME280;23832;43.216;27.946;2022-09-04T03:21:45;101272.19;;;20.63;100.00
38022;BME280;23832;43.216;27.946;2022-09-04T03:23:53;101277.31;;;20.65;100.00
38022;BME280;23832;43.216;27.946;2022-09-04T03:28:40;101281.78;;;20.71;100.00
38022;BME280;23832;43.216;27.946;2022-09-04T03:30:46;101285.44;;;20.77;100.00
38022;BME280;23832;43.216;27.946;2022-09-04T03:32:53;101289.06;;;20.82;100.00
38022;BME280;23832;43.216;27.946;2022-09-04T03:35:08;101281.25;;;20.81;100.00
38022;BME280;23832;43.216;27.946;2022-09-04T03:37:30;101300.00;;;20.81;100.00
38022;BME280;23832;43.216;27.946;2022-09-04T03:39:45;101298.75;;;20.83;100.00
38022;BME280;23832;43.216;27.946;2022-09-04T03:41:59;101295.84;;;20.85;100.00
38022;BME280;23832;43.216;27.946;2022-09-04T03:44:14;101300.16;;;20.86;100.00
38022;BME280;23832;43.216;27.946;2022-09-04T03:46:33;101304.25;;;20.88;100.00
38022;BME280;23832;43.216;27.946;2022-09-04T03:48:49;101311.25;;;20.89;100.00
38022;BME280;23832;43.216;27.946;2022-09-04T03:50:57;101307.53;;;20.90;100.00
38022;BME280;23832;43.216;27.946;2022-09-04T03:53:08;101314.91;;;20.95;100.00
38022;BME280;23832;43.216;27.946;2022-09-04T03:55:30;101316.53;;;20.96;100.00
38022;BME280;23832;43.216;27.946;2022-09-04T03:58:01;101312.00;;;20.96;100.00
38022;BME280;23832;43.216;27.946;2022-09-04T04:00:11;101311.75;;;20.98;100.00
38022;BME280;23832;43.216;27.946;2022-09-04T04:02:24;101308.88;;;20.81;100.00
38022;BME280;23832;43.216;27.946;2022-09-04T04:04:40;101311.47;;;20.88;100.00
38022;BME280;23832;43.216;27.946;2022-09-04T04:06:50;101315.09;;;20.93;100.00
38022;BME280;23832;43.216;27.946;2022-09-04T04:09:07;101318.63;;;20.94;100.00
38022;BME280;23832;43.216;27.946;2022-09-04T04:11:32;101321.75;;;20.91;100.00
38022;BME280;23832;43.216;27.946;2022-09-04T04:13:59;101314.75;;;20.90;100.00
38022;BME280;23832;43.216;27.946;2022-09-04T04:16:14;101313.28;;;20.94;100.00
38022;BME280;23832;43.216;27.946;2022-09-04T04:18:43;101314.91;;;20.95;100.00
38022;BME280;23832;43.216;27.946;2022-09-04T04:20:56;101323.47;;;21.04;100.00
38022;BME280;23832;43.216;27.946;2022-09-04T04:23:21;101322.19;;;21.06;100.00
38022;BME280;23832;43.216;27.946;2022-09-04T04:25:46;101321.50;;;21.11;100.00
38022;BME280;23832;43.216;27.946;2022-09-04T04:28:11;101331.31;;;21.17;100.00
38022;BME280;23832;43.216;27.946;2022-09-04T04:30:19;101326.94;;;21.22;100.00
38022;BME280;23832;43.216;27.946;2022-09-04T04:32:31;101320.81;;;21.34;100.00
38022;BME280;23832;43.216;27.946;2022-09-04T04:34:40;101313.03;;;21.44;100.00
38022;BME280;23832;43.216;27.946;2022-09-04T04:36:52;101325.09;;;21.53;100.00
38022;BME280;23832;43.216;27.946;2022-09-04T04:39:08;101327.91;;;21.58;100.00
38022;BME280;23832;43.216;27.946;2022-09-04T04:41:30;101315.19;;;21.65;100.00
38022;BME280;23832;43.216;27.946;2022-09-04T04:44:04;101324.78;;;21.73;100.00
38022;BME280;23832;43.216;27.946;2022-09-04T04:46:12;101326.91;;;21.82;100.00
38022;BME280;23832;43.216;27.946;2022-09-04T04:51:07;101323.88;;;21.91;100.00
38022;BME280;23832;43.216;27.946;2022-09-04T04:53:18;101314.34;;;21.95;100.00
38022;BME280;23832;43.216;27.946;2022-09-04T04:55:34;101323.44;;;22.05;100.00
38022;BME280;23832;43.216;27.946;2022-09-04T04:57:46;101325.59;;;22.15;100.00
38022;BME280;23832;43.216;27.946;2022-09-04T04:59:53;101323.59;;;22.22;100.00
38022;BME280;23832;43.216;27.946;2022-09-04T05:02:10;101275.41;;;21.74;100.00
38022;BME280;23832;43.216;27.946;2022-09-04T05:04:21;101281.88;;;21.96;100.00
38022;BME280;23832;43.216;27.946;2022-09-04T05:06:35;101245.94;;;21.97;100.00
38022;BME280;23832;43.216;27.946;2022-09-04T05:08:43;101323.59;;;22.57;100.00
38022;BME280;23832;43.216;27.946;2022-09-04T05:10:52;101327.66;;;22.72;100.00
38022;BME280;23832;43.216;27.946;2022-09-04T05:13:05;101339.00;;;22.85;98.13
38022;BME280;23832;43.216;27.946;2022-09-04T05:15:16;101340.03;;;22.96;95.74
38022;BME280;23832;43.216;27.946;2022-09-04T05:17:32;101333.22;;;23.05;92.63
38022;BME280;23832;43.216;27.946;2022-09-04T05:19:42;101328.03;;;23.15;90.71
38022;BME280;23832;43.216;27.946;2022-09-04T05:21:50;101328.47;;;23.24;85.55
38022;BME280;23832;43.216;27.946;2022-09-04T05:23:58;101339.41;;;23.34;84.29
38022;BME280;23832;43.216;27.946;2022-09-04T05:26:10;101299.63;;;23.19;82.01
38022;BME280;23832;43.216;27.946;2022-09-04T05:28:27;101329.28;;;23.53;79.99
38022;BME280;23832;43.216;27.946;2022-09-04T05:30:40;101334.75;;;23.58;77.33
38022;BME280;23832;43.216;27.946;2022-09-04T05:32:52;101327.28;;;23.60;72.97
38022;BME280;23832;43.216;27.946;2022-09-04T05:35:08;101345.53;;;23.58;74.70
38022;BME280;23832;43.216;27.946;2022-09-04T05:37:18;101338.56;;;23.74;76.25
38022;BME280;23832;43.216;27.946;2022-09-04T05:39:26;101348.50;;;23.90;77.26
38022;BME280;23832;43.216;27.946;2022-09-04T05:41:36;101335.00;;;24.02;74.04
38022;BME280;23832;43.216;27.946;2022-09-04T05:43:58;101341.19;;;24.19;74.42
38022;BME280;23832;43.216;27.946;2022-09-04T05:46:05;101349.75;;;24.33;72.83
38022;BME280;23832;43.216;27.946;2022-09-04T05:48:19;101327.53;;;24.43;70.46
38022;BME280;23832;43.216;27.946;2022-09-04T05:50:35;101336.09;;;24.56;69.82
38022;BME280;23832;43.216;27.946;2022-09-04T05:52:48;101337.41;;;24.54;69.50
38022;BME280;23832;43.216;27.946;2022-09-04T05:55:10;101343.81;;;24.70;69.20
38022;BME280;23832;43.216;27.946;2022-09-04T05:57:27;101345.97;;;24.89;69.92
38022;BME280;23832;43.216;27.946;2022-09-04T05:59:56;101342.50;;;24.94;65.69
38022;BME280;23832;43.216;27.946;2022-09-04T06:02:25;101338.63;;;25.07;67.08
38022;BME280;23832;43.216;27.946;2022-09-04T06:04:54;101351.56;;;25.27;67.87
38022;BME280;23832;43.216;27.946;2022-09-04T06:07:09;101355.84;;;25.50;67.09
38022;BME280;23832;43.216;27.946;2022-09-04T06:09:25;101352.06;;;25.72;66.52
38022;BME280;23832;43.216;27.946;2022-09-04T06:11:38;101340.53;;;25.82;67.00
38022;BME280;23832;43.216;27.946;2022-09-04T06:13:57;101348.84;;;26.13;65.58
38022;BME280;23832;43.216;27.946;2022-09-04T06:18:44;101355.31;;;26.44;63.21
38022;BME280;23832;43.216;27.946;2022-09-04T06:21:01;101365.44;;;26.64;62.85
38022;BME280;23832;43.216;27.946;2022-09-04T06:23:27;101363.34;;;26.76;61.40
38022;BME280;23832;43.216;27.946;2022-09-04T06:31:22;101364.91;;;27.29;61.10
38022;BME280;23832;43.216;27.946;2022-09-04T06:33:52;101359.81;;;27.48;58.86
38022;BME280;23832;43.216;27.946;2022-09-04T06:36:24;101365.53;;;27.62;58.54
38022;BME280;23832;43.216;27.946;2022-09-04T06:38:37;101362.03;;;27.77;57.61
38022;BME280;23832;43.216;27.946;2022-09-04T06:40:54;101353.66;;;27.88;55.74
38022;BME280;23832;43.216;27.946;2022-09-04T06:43:08;101347.72;;;27.96;53.66
38022;BME280;23832;43.216;27.946;2022-09-04T06:45:25;101356.63;;;28.02;52.98
38022;BME280;23832;43.216;27.946;2022-09-04T06:47:40;101354.47;;;28.09;52.65
38022;BME280;23832;43.216;27.946;2022-09-04T06:49:55;101352.56;;;28.15;51.72
38022;BME280;23832;43.216;27.946;2022-09-04T06:52:09;101359.88;;;28.19;50.42
38022;BME280;23832;43.216;27.946;2022-09-04T06:54:28;101360.41;;;28.26;50.09
38022;BME280;23832;43.216;27.946;2022-09-04T06:56:50;101360.41;;;28.37;50.09
38022;BME280;23832;43.216;27.946;2022-09-04T07:01:23;101360.94;;;28.54;49.35
38022;BME280;23832;43.216;27.946;2022-09-04T07:03:41;101361.16;;;28.68;48.97
38022;BME280;23832;43.216;27.946;2022-09-04T07:05:52;101358.94;;;28.80;48.61
38022;BME280;23832;43.216;27.946;2022-09-04T07:08:04;101365.16;;;28.91;48.33
38022;BME280;23832;43.216;27.946;2022-09-04T07:10:13;101371.94;;;28.98;48.05
38022;BME280;23832;43.216;27.946;2022-09-04T07:12:41;101380.84;;;29.09;47.22
38022;BME280;23832;43.216;27.946;2022-09-04T07:17:17;101383.53;;;29.09;46.27
38022;BME280;23832;43.216;27.946;2022-09-04T07:21:53;101370.47;;;29.21;47.44
38022;BME280;23832;43.216;27.946;2022-09-04T07:24:02;101395.38;;;29.33;46.04
38022;BME280;23832;43.216;27.946;2022-09-04T07:26:18;101384.44;;;29.44;45.76
38022;BME280;23832;43.216;27.946;2022-09-04T07:28:54;101388.00;;;29.49;45.33
38022;BME280;23832;43.216;27.946;2022-09-04T07:31:02;101390.94;;;29.58;46.34
38022;BME280;23832;43.216;27.946;2022-09-04T07:33:11;101385.38;;;29.73;46.68
38022;BME280;23832;43.216;27.946;2022-09-04T07:35:15;101392.97;;;29.76;45.46
38022;BME280;23832;43.216;27.946;2022-09-04T07:37:23;101387.44;;;29.86;45.34
38022;BME280;23832;43.216;27.946;2022-09-04T07:39:36;101403.38;;;30.03;45.35
38022;BME280;23832;43.216;27.946;2022-09-04T07:41:45;101394.06;;;30.09;44.73
38022;BME280;23832;43.216;27.946;2022-09-04T07:43:56;101391.00;;;30.21;44.44
38022;BME280;23832;43.216;27.946;2022-09-04T07:46:11;101379.69;;;30.38;45.18
38022;BME280;23832;43.216;27.946;2022-09-04T07:48:20;101387.66;;;30.53;44.46
38022;BME280;23832;43.216;27.946;2022-09-04T07:50:30;101386.75;;;30.68;44.76
38022;BME280;23832;43.216;27.946;2022-09-04T07:52:53;101385.97;;;30.86;44.68
38022;BME280;23832;43.216;27.946;2022-09-04T07:55:10;101400.47;;;31.00;43.85
38022;BME280;23832;43.216;27.946;2022-09-04T07:57:37;101393.97;;;31.01;42.47
38022;BME280;23832;43.216;27.946;2022-09-04T08:02:42;101399.81;;;30.90;42.66
38022;BME280;23832;43.216;27.946;2022-09-04T08:05:09;101393.41;;;30.99;42.80
38022;BME280;23832;43.216;27.946;2022-09-04T08:07:20;101392.47;;;31.09;43.40
38022;BME280;23832;43.216;27.946;2022-09-04T08:09:46;101402.56;;;31.32;43.23
38022;BME280;23832;43.216;27.946;2022-09-04T08:12:10;101393.88;;;31.49;43.33
38022;BME280;23832;43.216;27.946;2022-09-04T08:14:31;101394.03;;;31.77;42.31
38022;BME280;23832;43.216;27.946;2022-09-04T08:16:44;101394.47;;;31.84;42.17
38022;BME280;23832;43.216;27.946;2022-09-04T08:19:12;101398.38;;;31.78;40.69
38022;BME280;23832;43.216;27.946;2022-09-04T08:21:25;101394.47;;;31.84;41.48
38022;BME280;23832;43.216;27.946;2022-09-04T08:23:52;101400.38;;;32.05;41.13
38022;BME280;23832;43.216;27.946;2022-09-04T08:26:08;101390.50;;;32.09;41.06
38022;BME280;23832;43.216;27.946;2022-09-04T08:28:24;101390.63;;;32.17;40.94
38022;BME280;23832;43.216;27.946;2022-09-04T08:30:37;101388.22;;;32.30;40.50
38022;BME280;23832;43.216;27.946;2022-09-04T08:32:57;101379.88;;;32.40;40.43
38022;BME280;23832;43.216;27.946;2022-09-04T08:35:17;101373.09;;;32.51;40.43
38022;BME280;23832;43.216;27.946;2022-09-04T08:37:25;101357.06;;;32.63;40.39
38022;BME280;23832;43.216;27.946;2022-09-04T08:39:34;101369.88;;;33.04;39.96
38022;BME280;23832;43.216;27.946;2022-09-04T08:42:25;101367.88;;;32.96;38.51
38022;BME280;23832;43.216;27.946;2022-09-04T08:47:43;101366.47;;;32.98;38.50
38022;BME280;23832;43.216;27.946;2022-09-04T08:50:12;101339.66;;;32.73;38.26
38022;BME280;23832;43.216;27.946;2022-09-04T08:52:40;101366.91;;;33.14;38.42
38022;BME280;23832;43.216;27.946;2022-09-04T08:55:00;101366.81;;;33.19;38.53
38022;BME280;23832;43.216;27.946;2022-09-04T08:59:56;101349.56;;;32.83;37.94
38022;BME280;23832;43.216;27.946;2022-09-04T09:08:05;101354.81;;;33.43;36.93
38022;BME280;23832;43.216;27.946;2022-09-04T09:10:33;101338.75;;;33.27;38.45
38022;BME280;23832;43.216;27.946;2022-09-04T09:15:48;101340.78;;;32.86;38.01
38022;BME280;23832;43.216;27.946;2022-09-04T09:18:00;101345.72;;;32.70;38.04
38022;BME280;23832;43.216;27.946;2022-09-04T09:20:17;101346.31;;;32.53;38.03
38022;BME280;23832;43.216;27.946;2022-09-04T09:22:49;101334.50;;;32.30;37.88
38022;BME280;23832;43.216;27.946;2022-09-04T09:25:15;101332.13;;;32.10;38.61
38022;BME280;23832;43.216;27.946;2022-09-04T09:27:52;101325.34;;;32.07;38.48
38022;BME280;23832;43.216;27.946;2022-09-04T09:30:05;101328.88;;;32.08;39.38
38022;BME280;23832;43.216;27.946;2022-09-04T09:35:19;101338.91;;;32.26;38.99
38022;BME280;23832;43.216;27.946;2022-09-04T09:40:28;101327.41;;;32.29;38.62
38022;BME280;23832;43.216;27.946;2022-09-04T09:42:58;101334.06;;;32.23;38.10
38022;BME280;23832;43.216;27.946;2022-09-04T09:45:21;101340.94;;;32.20;38.22
38022;BME280;23832;43.216;27.946;2022-09-04T09:48:17;101341.63;;;32.12;38.59
38022;BME280;23832;43.216;27.946;2022-09-04T09:56:06;101340.97;;;32.34;38.74
38022;BME280;23832;43.216;27.946;2022-09-04T09:58:44;101337.22;;;32.30;38.25
38022;BME280;23832;43.216;27.946;2022-09-04T10:01:01;101340.81;;;32.26;38.69
38022;BME280;23832;43.216;27.946;2022-09-04T10:09:03;101343.16;;;31.86;39.11
38022;BME280;23832;43.216;27.946;2022-09-04T10:11:37;101349.06;;;31.74;38.99
38022;BME280;23832;43.216;27.946;2022-09-04T10:22:32;101354.28;;;30.95;40.51
38022;BME280;23832;43.216;27.946;2022-09-04T10:27:51;101361.09;;;30.74;40.97
38022;BME280;23832;43.216;27.946;2022-09-04T10:30:07;101356.81;;;30.68;41.51
38022;BME280;23832;43.216;27.946;2022-09-04T10:32:34;101355.09;;;30.72;41.00
38022;BME280;23832;43.216;27.946;2022-09-04T10:40:29;101343.00;;;30.83;42.49
38022;BME280;23832;43.216;27.946;2022-09-04T10:42:45;101344.00;;;30.92;42.33
38022;BME280;23832;43.216;27.946;2022-09-04T10:45:14;101345.00;;;30.96;42.28
38022;BME280;23832;43.216;27.946;2022-09-04T10:47:40;101345.16;;;31.05;41.64
38022;BME280;23832;43.216;27.946;2022-09-04T10:49:59;101347.03;;;31.10;41.49
38022;BME280;23832;43.216;27.946;2022-09-04T10:52:22;101342.91;;;31.12;41.66
38022;BME280;23832;43.216;27.946;2022-09-04T10:54:57;101350.78;;;31.14;41.55
38022;BME280;23832;43.216;27.946;2022-09-04T10:57:13;101345.31;;;31.14;41.28
38022;BME280;23832;43.216;27.946;2022-09-04T10:59:36;101349.75;;;31.10;41.21
38022;BME280;23832;43.216;27.946;2022-09-04T11:02:23;101344.34;;;31.04;40.92
38022;BME280;23832;43.216;27.946;2022-09-04T11:04:52;101346.41;;;30.94;40.63
38022;BME280;23832;43.216;27.946;2022-09-04T11:07:14;101344.25;;;30.91;41.13
38022;BME280;23832;43.216;27.946;2022-09-04T11:09:42;101361.25;;;30.83;41.10
38022;BME280;23832;43.216;27.946;2022-09-04T11:14:36;101357.91;;;30.67;41.00
38022;BME280;23832;43.216;27.946;2022-09-04T11:17:27;101355.91;;;30.48;40.78
38022;BME280;23832;43.216;27.946;2022-09-04T11:19:53;101352.72;;;30.41;41.17
38022;BME280;23832;43.216;27.946;2022-09-04T11:25:12;101340.63;;;30.29;41.21
38022;BME280;23832;43.216;27.946;2022-09-04T11:27:43;101344.19;;;30.24;41.14
38022;BME280;23832;43.216;27.946;2022-09-04T11:30:01;101328.56;;;30.11;41.85
38022;BME280;23832;43.216;27.946;2022-09-04T11:32:23;101346.38;;;30.22;41.83
38022;BME280;23832;43.216;27.946;2022-09-04T11:40:34;101344.66;;;30.31;41.50
38022;BME280;23832;43.216;27.946;2022-09-04T11:42:50;101340.31;;;30.30;41.71
38022;BME280;23832;43.216;27.946;2022-09-04T11:50:16;101346.78;;;30.34;42.00
38022;BME280;23832;43.216;27.946;2022-09-04T11:52:25;101350.56;;;30.38;41.37
38022;BME280;23832;43.216;27.946;2022-09-04T11:54:50;101341.50;;;30.19;41.74
38022;BME280;23832;43.216;27.946;2022-09-04T11:57:03;101333.31;;;30.24;41.93
38022;BME280;23832;43.216;27.946;2022-09-04T11:59:32;101336.00;;;30.29;41.19
38022;BME280;23832;43.216;27.946;2022-09-04T12:02:03;101332.69;;;30.32;40.45
38022;BME280;23832;43.216;27.946;2022-09-04T12:04:22;101329.38;;;30.35;40.92
38022;BME280;23832;43.216;27.946;2022-09-04T12:06:35;101333.16;;;30.39;40.70
38022;BME280;23832;43.216;27.946;2022-09-04T12:09:09;101317.75;;;30.30;41.45
38022;BME280;23832;43.216;27.946;2022-09-04T12:11:42;101320.00;;;30.22;42.02
38022;BME280;23832;43.216;27.946;2022-09-04T12:14:04;101314.09;;;30.15;42.67
38022;BME280;23832;43.216;27.946;2022-09-04T12:16:59;101309.53;;;30.06;42.46
38022;BME280;23832;43.216;27.946;2022-09-04T12:19:42;101308.03;;;29.94;42.30
38022;BME280;23832;43.216;27.946;2022-09-04T12:22:20;101303.72;;;29.88;42.21
38022;BME280;23832;43.216;27.946;2022-09-04T12:25:04;101309.16;;;29.88;42.51
38022;BME280;23832;43.216;27.946;2022-09-04T12:30:03;101311.78;;;29.99;41.98
38022;BME280;23832;43.216;27.946;2022-09-04T12:32:26;101309.56;;;30.01;41.92
38022;BME280;23832;43.216;27.946;2022-09-04T12:34:46;101311.38;;;30.15;42.01
38022;BME280;23832;43.216;27.946;2022-09-04T12:37:12;101309.41;;;30.21;41.44
38022;BME280;23832;43.216;27.946;2022-09-04T12:39:38;101311.56;;;30.24;41.25
38022;BME280;23832;43.216;27.946;2022-09-04T12:41:52;101313.16;;;30.25;41.03
38022;BME280;23832;43.216;27.946;2022-09-04T12:44:05;101302.06;;;30.21;41.21
38022;BME280;23832;43.216;27.946;2022-09-04T12:46:21;101309.66;;;30.24;41.11
38022;BME280;23832;43.216;27.946;2022-09-04T12:48:34;101308.84;;;30.24;40.85
38022;BME280;23832;43.216;27.946;2022-09-04T12:50:43;101314.78;;;30.26;40.81
38022;BME280;23832;43.216;27.946;2022-09-04T12:53:08;101313.75;;;30.22;40.72
38022;BME280;23832;43.216;27.946;2022-09-04T12:55:15;101316.28;;;30.13;40.69
38022;BME280;23832;43.216;27.946;2022-09-04T12:57:28;101317.69;;;30.11;40.79
38022;BME280;23832;43.216;27.946;2022-09-04T13:02:03;101312.59;;;29.99;40.87
38022;BME280;23832;43.216;27.946;2022-09-04T13:04:15;101311.84;;;29.93;40.57
38022;BME280;23832;43.216;27.946;2022-09-04T13:06:26;101314.31;;;29.90;41.09
38022;BME280;23832;43.216;27.946;2022-09-04T13:08:41;101311.63;;;29.85;41.07
38022;BME280;23832;43.216;27.946;2022-09-04T13:10:55;101308.16;;;29.79;40.74
38022;BME280;23832;43.216;27.946;2022-09-04T13:13:09;101308.72;;;29.76;41.17
38022;BME280;23832;43.216;27.946;2022-09-04T13:15:20;101309.34;;;29.68;41.34
38022;BME280;23832;43.216;27.946;2022-09-04T13:17:30;101307.16;;;29.65;41.01
38022;BME280;23832;43.216;27.946;2022-09-04T13:19:40;101316.41;;;29.64;41.13
38022;BME280;23832;43.216;27.946;2022-09-04T13:22:00;101308.28;;;29.64;40.98
38022;BME280;23832;43.216;27.946;2022-09-04T13:24:16;101310.97;;;29.64;41.28
38022;BME280;23832;43.216;27.946;2022-09-04T13:26:37;101319.13;;;29.64;41.04